createdAt,value
2023-02-12T00:01:36.136Z,3.03
2023-02-12T00:04:03.228Z,3.78
2023-02-12T00:06:29.959Z,3.13
2023-02-12T00:11:27.076Z,2.97
2023-02-12T00:13:54.550Z,3.40
2023-02-12T00:16:23.703Z,3.47
2023-02-12T00:18:53.243Z,3.45
2023-02-12T00:21:20.241Z,3.30
2023-02-12T00:23:46.879Z,3.00
2023-02-12T00:28:46.416Z,3.05
2023-02-12T00:31:23.625Z,2.92
2023-02-12T00:36:20.299Z,3.50
2023-02-12T00:38:48.031Z,3.10
2023-02-12T00:41:14.890Z,3.85
2023-02-12T00:43:41.828Z,3.35
2023-02-12T00:46:08.958Z,2.58
2023-02-12T00:48:36.929Z,2.70
2023-02-12T00:51:04.204Z,2.85
2023-02-12T00:53:31.317Z,2.67
2023-02-12T00:55:58.488Z,2.70
2023-02-12T00:58:25.330Z,2.65
2023-02-12T01:03:19.281Z,2.38
2023-02-12T01:05:45.977Z,3.58
2023-02-12T01:10:40.673Z,2.65
2023-02-12T01:13:09.889Z,2.58
2023-02-12T01:15:36.590Z,3.75
2023-02-12T01:18:05.006Z,2.65
2023-02-12T01:22:59.085Z,2.25
2023-02-12T01:25:25.749Z,3.17
2023-02-12T01:27:54.398Z,3.25
2023-02-12T01:30:24.030Z,2.42
2023-02-12T01:32:51.770Z,2.72
2023-02-12T01:35:18.580Z,2.28
2023-02-12T01:37:45.292Z,2.65
2023-02-12T01:42:46.142Z,2.40
2023-02-12T01:45:13.003Z,2.78
2023-02-12T01:47:44.804Z,2.40
2023-02-12T01:50:17.066Z,2.08
2023-02-12T01:52:47.720Z,3.28
2023-02-12T01:55:15.568Z,2.53
2023-02-12T01:57:45.476Z,2.38
2023-02-12T02:00:15.742Z,2.53
2023-02-12T02:02:55.342Z,2.47
2023-02-12T02:05:46.172Z,2.90
2023-02-12T02:08:13.096Z,2.60
2023-02-12T02:10:40.113Z,2.97
2023-02-12T02:13:26.098Z,2.50
2023-02-12T02:15:57.564Z,2.38
2023-02-12T02:18:33.774Z,3.10
2023-02-12T02:21:36.848Z,2.88
2023-02-12T02:24:31.472Z,3.13
2023-02-12T02:27:20.269Z,2.95
2023-02-12T02:29:57.771Z,2.90
2023-02-12T02:32:32.050Z,2.72
2023-02-12T02:35:10.645Z,2.58
2023-02-12T02:37:45.283Z,2.70
2023-02-12T02:40:18.701Z,3.15
2023-02-12T02:43:00.827Z,2.80
2023-02-12T02:45:30.499Z,3.08
2023-02-12T02:48:12.549Z,3.20
2023-02-12T02:50:44.358Z,2.50
2023-02-12T02:53:27.810Z,3.47
2023-02-12T02:55:58.664Z,2.67
2023-02-12T02:58:38.885Z,2.97
2023-02-12T03:01:24.191Z,2.70
2023-02-12T03:04:10.790Z,2.72
2023-02-12T03:06:47.042Z,2.90
2023-02-12T03:09:31.176Z,2.50
2023-02-12T03:12:04.647Z,2.78
2023-02-12T03:14:37.705Z,3.80
2023-02-12T03:17:12.895Z,3.33
2023-02-12T03:19:49.331Z,2.95
2023-02-12T03:22:21.209Z,2.88
2023-02-12T03:25:09.483Z,3.13
2023-02-12T03:27:44.981Z,3.90
2023-02-12T03:30:12.417Z,3.05
2023-02-12T03:32:53.429Z,3.17
2023-02-12T03:35:27.355Z,2.95
2023-02-12T03:38:22.046Z,3.03
2023-02-12T03:41:20.484Z,3.40
2023-02-12T03:46:20.242Z,3.67
2023-02-12T03:48:58.336Z,4.93
2023-02-12T03:51:39.929Z,3.20
2023-02-12T03:54:09.117Z,3.95
2023-02-12T03:56:47.858Z,4.15
2023-02-12T03:59:15.104Z,4.40
2023-02-12T04:01:42.300Z,4.55
2023-02-12T04:04:10.232Z,3.90
2023-02-12T04:06:37.159Z,4.90
2023-02-12T04:09:08.747Z,5.20
2023-02-12T04:11:54.764Z,4.72
2023-02-12T04:14:45.565Z,4.90
2023-02-12T04:17:15.630Z,3.78
2023-02-12T04:19:54.417Z,4.38
2023-02-12T04:22:33.230Z,6.55
2023-02-12T04:25:25.333Z,5.45
2023-02-12T04:28:23.155Z,5.70
2023-02-12T04:31:20.309Z,5.65
2023-02-12T04:33:55.830Z,5.38
2023-02-12T04:36:26.557Z,6.20
2023-02-12T04:39:01.576Z,4.22
2023-02-12T04:41:28.806Z,4.60
2023-02-12T04:43:55.483Z,5.07
2023-02-12T04:46:22.402Z,5.70
2023-02-12T04:48:58.301Z,4.72
2023-02-12T04:51:25.333Z,4.13
2023-02-12T04:53:52.040Z,4.65
2023-02-12T04:58:45.338Z,3.83
2023-02-12T05:03:38.872Z,3.95
2023-02-12T05:06:08.282Z,4.20
2023-02-12T05:08:35.069Z,4.15
2023-02-12T05:11:09.304Z,4.07
2023-02-12T05:13:36.516Z,3.35
2023-02-12T05:16:08.012Z,3.45
2023-02-12T05:18:35.528Z,3.53
2023-02-12T05:21:04.531Z,2.83
2023-02-12T05:23:33.889Z,3.67
2023-02-12T05:26:02.693Z,3.95
2023-02-12T05:28:29.791Z,4.10
2023-02-12T05:31:04.148Z,4.68
2023-02-12T05:33:31.245Z,3.97
2023-02-12T05:36:07.326Z,3.75
2023-02-12T05:38:34.265Z,4.30
2023-02-12T05:41:21.576Z,4.20
2023-02-12T05:43:49.917Z,4.18
2023-02-12T05:46:18.813Z,4.43
2023-02-12T05:48:46.222Z,4.68
2023-02-12T05:51:16.641Z,3.60
2023-02-12T05:53:43.460Z,3.90
2023-02-12T05:56:11.748Z,4.68
2023-02-12T05:58:38.817Z,5.55
2023-02-12T06:01:11.084Z,4.93
2023-02-12T06:03:38.109Z,4.32
2023-02-12T06:06:04.964Z,4.65
2023-02-12T06:08:31.774Z,4.88
2023-02-12T06:11:07.362Z,3.80
2023-02-12T06:13:34.630Z,4.57
2023-02-12T06:16:01.545Z,4.10
2023-02-12T06:18:28.468Z,4.10
2023-02-12T06:20:55.216Z,4.10
2023-02-12T06:23:23.124Z,4.30
2023-02-12T06:25:51.190Z,4.85
2023-02-12T06:28:18.087Z,4.85
2023-02-12T06:30:44.826Z,5.40
2023-02-12T06:33:11.670Z,5.25
2023-02-12T06:35:38.597Z,5.82
2023-02-12T06:38:05.640Z,5.05
2023-02-12T06:40:32.643Z,5.57
2023-02-12T06:42:59.498Z,5.40
2023-02-12T06:45:26.176Z,5.22
2023-02-12T06:50:19.514Z,5.10
2023-02-12T06:52:46.304Z,4.75
2023-02-12T06:55:12.987Z,4.50
2023-02-12T06:57:39.703Z,4.40
2023-02-12T07:02:33.271Z,4.47
2023-02-12T07:07:26.679Z,5.50
2023-02-12T07:12:19.918Z,4.28
2023-02-12T07:17:13.195Z,5.38
2023-02-12T07:22:06.493Z,5.18
2023-02-12T07:26:59.896Z,4.55
2023-02-12T07:31:53.189Z,4.90
2023-02-12T07:34:19.917Z,6.38
2023-02-12T07:39:13.561Z,5.30
2023-02-12T07:41:40.271Z,6.18
2023-02-12T07:46:48.589Z,5.15
2023-02-12T07:49:21.532Z,5.05
2023-02-12T07:51:49.564Z,5.82
2023-02-12T07:54:17.108Z,7.30
2023-02-12T07:56:46.864Z,5.82
2023-02-12T07:59:16.549Z,5.32
2023-02-12T08:01:47.449Z,5.38
2023-02-12T08:04:16.967Z,5.22
2023-02-12T08:06:46.729Z,5.32
2023-02-12T08:09:16.141Z,6.20
2023-02-12T08:11:43.546Z,6.03
2023-02-12T08:14:12.974Z,5.40
2023-02-12T08:16:41.534Z,5.72
2023-02-12T08:19:17.869Z,5.70
2023-02-12T08:21:50.708Z,6.05
2023-02-12T08:24:17.522Z,7.65
2023-02-12T08:29:15.107Z,8.48
2023-02-12T08:31:47.367Z,8.75
2023-02-12T08:34:23.710Z,9.75
2023-02-12T08:36:52.047Z,10.35
2023-02-12T08:39:19.092Z,11.00
2023-02-12T08:41:46.833Z,11.82
2023-02-12T08:44:13.694Z,11.13
2023-02-12T08:46:47.299Z,10.25
2023-02-12T08:49:22.136Z,11.57
2023-02-12T08:51:52.174Z,10.57
2023-02-12T08:54:21.819Z,9.48
2023-02-12T08:56:48.598Z,10.95
2023-02-12T09:01:43.128Z,12.97
2023-02-12T09:04:19.527Z,13.40
2023-02-12T09:06:46.946Z,12.70
2023-02-12T09:09:14.324Z,13.15
2023-02-12T09:11:41.135Z,14.18
2023-02-12T09:16:37.978Z,16.38
2023-02-12T09:19:04.870Z,16.80
2023-02-12T09:21:32.382Z,15.00
2023-02-12T09:24:00.892Z,15.45
2023-02-12T09:26:27.841Z,14.77
2023-02-12T09:28:55.091Z,16.52
2023-02-12T09:31:27.574Z,15.63
2023-02-12T09:34:14.604Z,15.25
2023-02-12T09:36:41.453Z,15.73
2023-02-12T09:42:07.024Z,14.52
2023-02-12T09:44:46.553Z,16.35
2023-02-12T09:48:03.929Z,15.35
2023-02-12T09:50:55.138Z,15.60
2023-02-12T09:53:25.950Z,16.38
2023-02-12T09:55:52.766Z,16.80
2023-02-12T09:58:41.330Z,16.75
2023-02-12T10:01:17.467Z,16.25
2023-02-12T10:03:45.584Z,15.73
2023-02-12T10:06:16.256Z,17.65
2023-02-12T10:09:10.377Z,15.57
2023-02-12T10:12:04.115Z,15.82
2023-02-12T10:14:59.849Z,17.33
2023-02-12T10:17:43.738Z,18.00
2023-02-12T10:20:19.555Z,15.73
2023-02-12T10:23:01.525Z,16.42
2023-02-12T10:25:40.257Z,13.00
2023-02-12T10:28:15.171Z,13.20
2023-02-12T10:31:02.681Z,12.73
2023-02-12T10:33:41.009Z,10.52
2023-02-12T10:36:33.420Z,11.07
2023-02-12T10:39:09.914Z,10.90
2023-02-12T10:41:43.226Z,11.50
2023-02-12T10:44:11.657Z,12.00
2023-02-12T10:46:38.892Z,12.60
2023-02-12T10:49:08.588Z,11.27
2023-02-12T10:51:58.717Z,10.73
2023-02-12T10:54:44.021Z,9.75
2023-02-12T10:57:19.781Z,9.55
2023-02-12T10:59:49.136Z,9.32
2023-02-12T11:02:30.958Z,8.95
2023-02-12T11:04:59.211Z,9.32
2023-02-12T11:07:27.709Z,8.57
2023-02-12T11:09:56.971Z,11.63
2023-02-12T11:12:32.692Z,8.65
2023-02-12T11:15:07.952Z,7.93
2023-02-12T11:17:40.184Z,7.55
2023-02-12T11:20:09.663Z,8.20
2023-02-12T11:22:37.269Z,8.27
2023-02-12T11:25:18.607Z,6.97
2023-02-12T11:27:45.338Z,7.53
2023-02-12T11:32:46.470Z,6.80
2023-02-12T11:35:26.897Z,7.13
2023-02-12T11:37:57.401Z,5.55
2023-02-12T11:40:27.152Z,7.22
2023-02-12T11:43:06.332Z,6.75
2023-02-12T11:45:44.579Z,7.50
2023-02-12T11:48:19.289Z,7.82
2023-02-12T11:50:52.205Z,7.57
2023-02-12T11:53:36.042Z,7.68
2023-02-12T11:56:06.990Z,8.23
2023-02-12T11:58:34.097Z,7.70
2023-02-12T12:01:28.217Z,8.07
2023-02-12T12:04:05.058Z,7.35
2023-02-12T12:06:51.532Z,7.82
2023-02-12T12:09:32.881Z,8.23
2023-02-12T12:12:24.371Z,8.80
2023-02-12T12:15:13.009Z,8.70
2023-02-12T12:18:13.687Z,7.80
2023-02-12T12:20:52.946Z,8.73
2023-02-12T12:23:24.599Z,9.63
2023-02-12T12:25:55.963Z,10.80
2023-02-12T12:28:30.821Z,8.27
2023-02-12T12:31:06.996Z,10.13
2023-02-12T12:33:49.622Z,11.07
2023-02-12T12:36:38.025Z,11.02
2023-02-12T12:39:29.327Z,11.13
2023-02-12T12:42:01.950Z,11.10
2023-02-12T12:44:59.798Z,12.88
2023-02-12T12:48:02.903Z,12.32
2023-02-12T12:50:47.649Z,14.68
2023-02-12T12:53:32.399Z,13.93
2023-02-12T12:56:21.835Z,14.18
2023-02-12T12:59:00.536Z,14.95
2023-02-12T13:01:42.247Z,16.92
2023-02-12T13:04:30.622Z,16.35
2023-02-12T13:07:41.718Z,15.30
2023-02-12T13:10:31.727Z,17.63
2023-02-12T13:13:09.210Z,16.70
2023-02-12T13:15:38.952Z,17.77
2023-02-12T13:18:40.910Z,17.88
2023-02-12T13:21:16.710Z,17.25
2023-02-12T13:23:48.170Z,15.60
2023-02-12T13:26:30.797Z,16.48
2023-02-12T13:29:07.968Z,18.10
2023-02-12T13:31:42.457Z,16.15
2023-02-12T13:34:14.237Z,17.30
2023-02-12T13:36:42.580Z,16.27
2023-02-12T13:39:34.132Z,16.88
2023-02-12T13:42:12.811Z,16.23
2023-02-12T13:45:01.790Z,16.40
2023-02-12T13:47:49.921Z,15.80
2023-02-12T13:50:28.496Z,15.43
2023-02-12T13:53:20.600Z,16.23
2023-02-12T13:56:02.700Z,15.88
2023-02-12T13:58:32.698Z,16.15
2023-02-12T14:01:03.594Z,16.00
2023-02-12T14:03:31.705Z,15.18
2023-02-12T14:06:21.386Z,15.70
2023-02-12T14:08:52.391Z,14.45
2023-02-12T14:11:23.769Z,13.63
2023-02-12T14:13:57.698Z,15.60
2023-02-12T14:16:30.539Z,13.65
2023-02-12T14:19:41.389Z,13.80
2023-02-12T14:22:33.922Z,14.40
2023-02-12T14:25:25.645Z,14.32
2023-02-12T14:28:06.793Z,15.65
2023-02-12T14:30:40.223Z,14.20
2023-02-12T14:33:07.119Z,14.18
2023-02-12T14:38:23.146Z,12.90
2023-02-12T14:40:54.051Z,13.77
2023-02-12T14:43:26.351Z,13.90
2023-02-12T14:45:55.307Z,13.40
2023-02-12T14:48:54.044Z,13.35
2023-02-12T14:51:45.598Z,12.73
2023-02-12T14:54:26.520Z,11.95
2023-02-12T14:56:55.555Z,13.95
2023-02-12T14:59:25.851Z,12.95
2023-02-12T15:01:54.457Z,14.55
2023-02-12T15:04:26.832Z,13.32
2023-02-12T15:07:08.166Z,12.75
2023-02-12T15:09:44.826Z,14.27
2023-02-12T15:12:18.764Z,13.30
2023-02-12T15:15:10.123Z,14.80
2023-02-12T15:17:41.201Z,12.20
2023-02-12T15:20:32.153Z,13.70
2023-02-12T15:22:58.998Z,12.88
2023-02-12T15:28:00.612Z,12.00
2023-02-12T15:30:31.907Z,13.43
2023-02-12T15:33:02.985Z,13.88
2023-02-12T15:35:33.321Z,14.18
2023-02-12T15:38:01.201Z,14.85
2023-02-12T15:40:29.649Z,15.38
2023-02-12T15:42:59.172Z,15.32
2023-02-12T15:45:31.352Z,15.07
2023-02-12T15:50:58.603Z,16.25
2023-02-12T15:53:28.483Z,13.40
2023-02-12T15:55:55.800Z,15.45
2023-02-12T15:58:28.620Z,17.58
2023-02-12T16:01:01.705Z,17.52
2023-02-12T16:03:31.329Z,17.40
2023-02-12T16:06:06.352Z,16.15
2023-02-12T16:08:34.584Z,16.85
2023-02-12T16:11:13.695Z,16.23
2023-02-12T16:13:49.429Z,16.90
2023-02-12T16:16:21.599Z,16.77
2023-02-12T16:19:07.646Z,16.95
2023-02-12T16:21:38.983Z,15.65
2023-02-12T16:24:21.940Z,16.20
2023-02-12T16:26:49.260Z,17.33
2023-02-12T16:29:17.648Z,16.92
2023-02-12T16:32:00.980Z,15.90
2023-02-12T16:34:36.973Z,16.83
2023-02-12T16:37:49.805Z,17.35
2023-02-12T16:40:16.647Z,16.50
2023-02-12T16:45:26.620Z,16.52
2023-02-12T16:48:09.004Z,17.48
2023-02-12T16:50:39.482Z,17.50
2023-02-12T16:53:22.453Z,17.83
2023-02-12T16:55:49.538Z,17.77
2023-02-12T16:58:16.627Z,17.58
2023-02-12T17:00:44.128Z,17.95
2023-02-12T17:03:13.600Z,18.05
2023-02-12T17:05:42.630Z,16.90
2023-02-12T17:08:18.320Z,15.50
2023-02-12T17:10:45.065Z,14.48
2023-02-12T17:13:11.808Z,14.10
2023-02-12T17:18:14.116Z,12.90
2023-02-12T17:20:41.086Z,11.73
2023-02-12T17:23:09.935Z,13.15
2023-02-12T17:25:36.606Z,12.60
2023-02-12T17:28:03.359Z,11.43
2023-02-12T17:32:59.300Z,11.52
2023-02-12T17:35:26.191Z,13.02
2023-02-12T17:40:19.675Z,13.38
2023-02-12T17:45:13.061Z,16.13
2023-02-12T17:47:39.928Z,17.17
2023-02-12T17:50:12.392Z,16.80
2023-02-12T17:52:39.146Z,16.85
2023-02-12T17:57:33.429Z,19.10
2023-02-12T18:00:00.199Z,17.40
2023-02-12T18:04:53.666Z,16.00
2023-02-12T18:09:47.078Z,15.25
2023-02-12T18:12:13.886Z,15.15
2023-02-12T18:14:40.541Z,16.85
2023-02-12T18:19:33.968Z,15.75
2023-02-12T18:24:27.277Z,17.90
2023-02-12T18:29:20.859Z,14.80
2023-02-12T18:34:14.344Z,14.50
2023-02-12T18:36:41.061Z,17.10
2023-02-12T18:41:35.697Z,13.98
2023-02-12T18:44:02.429Z,14.88
2023-02-12T18:46:30.770Z,15.95
2023-02-12T18:48:58.459Z,15.40
2023-02-12T18:51:27.658Z,18.30
2023-02-12T18:54:03.008Z,17.23
2023-02-12T18:56:32.810Z,14.88
2023-02-12T18:59:01.744Z,15.75
2023-02-12T19:01:28.955Z,16.73
2023-02-12T19:03:59.033Z,17.33
2023-02-12T19:06:27.195Z,17.73
2023-02-12T19:08:58.688Z,18.80
2023-02-12T19:11:26.166Z,16.90
2023-02-12T19:13:53.062Z,16.50
2023-02-12T19:16:21.229Z,16.30
2023-02-12T19:18:54.492Z,19.08
2023-02-12T19:21:23.089Z,18.95
2023-02-12T19:23:55.402Z,19.00
2023-02-12T19:26:23.056Z,19.42
2023-02-12T19:28:49.968Z,19.52
2023-02-12T19:31:29.237Z,17.80
2023-02-12T19:33:58.828Z,17.17
2023-02-12T19:36:27.279Z,19.85
2023-02-12T19:38:54.571Z,21.27
2023-02-12T19:41:24.237Z,17.20
2023-02-12T19:43:55.789Z,18.38
2023-02-12T19:46:22.683Z,18.65
2023-02-12T19:48:49.641Z,17.85
2023-02-12T19:51:18.963Z,21.33
2023-02-12T19:53:46.796Z,16.33
2023-02-12T19:56:14.821Z,16.73
2023-02-12T19:58:42.345Z,18.98
2023-02-12T20:01:11.388Z,17.80
2023-02-12T20:03:38.644Z,18.73
2023-02-12T20:06:09.605Z,17.88
2023-02-12T20:08:37.976Z,18.02
2023-02-12T20:11:09.864Z,18.75
2023-02-12T20:13:36.913Z,17.15
2023-02-12T20:16:05.449Z,19.45
2023-02-12T20:18:32.435Z,17.95
2023-02-12T20:20:59.378Z,20.38
2023-02-12T20:23:26.360Z,19.80
2023-02-12T20:25:53.109Z,18.70
2023-02-12T20:30:47.709Z,18.40
2023-02-12T20:33:14.600Z,19.08
2023-02-12T20:35:41.306Z,19.67
2023-02-12T20:38:08.111Z,19.67
2023-02-12T20:43:01.392Z,17.65
2023-02-12T20:47:54.630Z,16.63
2023-02-12T20:50:21.281Z,17.33
2023-02-12T20:52:48.154Z,17.50
2023-02-12T20:57:41.666Z,17.25
2023-02-12T21:02:35.572Z,17.67
2023-02-12T21:05:02.429Z,17.40
2023-02-12T21:07:29.449Z,19.67
2023-02-12T21:09:56.315Z,17.17
2023-02-12T21:14:49.541Z,17.42
2023-02-12T21:17:16.355Z,19.67
2023-02-12T21:19:43.163Z,18.98
2023-02-12T21:24:36.438Z,17.83
2023-02-12T21:27:03.129Z,18.63
2023-02-12T21:32:01.030Z,15.55
2023-02-12T21:34:28.091Z,18.08
2023-02-12T21:36:56.536Z,16.80
2023-02-12T21:39:27.162Z,16.13
2023-02-12T21:42:00.826Z,16.63
2023-02-12T21:44:27.579Z,17.33
2023-02-12T21:49:28.068Z,15.80
2023-02-12T21:51:58.516Z,17.25
2023-02-12T21:54:26.210Z,18.33
2023-02-12T21:56:53.015Z,17.15
2023-02-12T21:59:19.742Z,17.10
2023-02-12T22:06:44.321Z,17.73
2023-02-12T22:09:12.457Z,16.90
2023-02-12T22:11:41.007Z,17.92
2023-02-12T22:14:09.991Z,18.23
2023-02-12T22:16:37.768Z,17.77
2023-02-12T22:19:05.630Z,17.63
2023-02-12T22:21:35.573Z,18.48
2023-02-12T22:24:04.166Z,18.63
2023-02-12T22:26:32.146Z,16.70
2023-02-12T22:29:04.795Z,17.27
2023-02-12T22:31:33.776Z,18.92
2023-02-12T22:34:04.165Z,16.67
2023-02-12T22:36:31.220Z,18.25
2023-02-12T22:38:59.814Z,19.30
2023-02-12T22:41:28.086Z,18.17
2023-02-12T22:43:54.952Z,19.00
2023-02-12T22:46:22.051Z,18.13
2023-02-12T22:48:48.691Z,17.75
2023-02-12T22:51:26.885Z,17.85
2023-02-12T22:53:54.815Z,18.42
2023-02-12T22:56:22.262Z,17.17
2023-02-12T22:58:53.241Z,18.48
2023-02-12T23:01:21.050Z,19.85
2023-02-12T23:03:47.857Z,18.38
2023-02-12T23:08:43.488Z,16.92
2023-02-12T23:11:11.061Z,18.00
2023-02-12T23:13:38.117Z,17.48
2023-02-12T23:16:04.861Z,17.02
2023-02-12T23:20:58.976Z,18.57
2023-02-12T23:23:25.881Z,17.38
2023-02-12T23:28:22.365Z,20.23
2023-02-12T23:30:50.699Z,18.92
2023-02-12T23:33:18.094Z,20.35
2023-02-12T23:35:46.156Z,20.52
2023-02-12T23:38:13.168Z,20.38
2023-02-12T23:40:40.707Z,21.23
2023-02-12T23:43:07.671Z,21.50
2023-02-12T23:45:34.481Z,22.27
2023-02-12T23:50:27.779Z,25.10
2023-02-12T23:52:54.452Z,23.95
2023-02-12T23:55:21.323Z,25.60
2023-02-12T23:57:49.654Z,24.27
